Time;durP1;ratioP1;P1;durP2;ratioP2;P2;SDS_P1;SDS_P2;PMS_P1;PMS_P2;Temp;Humidity;BMP_temperature;BMP_pressure;BME280_temperature;BME280_humidity;BME280_pressure;Samples;Min_cycle;Max_cycle;Signal;HPM_P1;HPM_P2
2021/07/10 00:01:33;;;;;;;0.65;0.20;;;;;;;24.07;41.01;100020.91;4403386;32;33370;-87
2021/07/10 00:04:01;;;;;;;0.10;0.10;;;;;;;23.80;42.07;100017.19;4388271;32;33105;-87
2021/07/10 00:06:28;;;;;;;1.45;0.73;;;;;;;23.91;41.71;100010.75;4403339;32;34114;-87
2021/07/10 00:08:56;;;;;;;0.10;0.10;;;;;;;24.19;41.27;100003.53;4409428;32;33867;-87
2021/07/10 00:11:24;;;;;;;0.30;0.10;;;;;;;24.00;41.94;100013.41;4400144;32;33468;-89
2021/07/10 00:14:09;;;;;;;0.22;0.10;;;;;;;23.92;42.15;100010.59;4392315;32;32998;-88
2021/07/10 00:16:37;;;;;;;0.20;0.10;;;;;;;23.83;42.61;100019.56;4389263;32;34312;-87
2021/07/10 00:19:05;;;;;;;0.10;0.10;;;;;;;23.71;43.06;100013.50;4393746;32;33252;-87
2021/07/10 00:21:33;;;;;;;0.43;0.20;;;;;;;23.25;44.60;100000.78;4404239;32;32777;-87
2021/07/10 00:24:00;;;;;;;0.10;0.10;;;;;;;23.76;42.62;100000.44;4405453;32;34028;-87
2021/07/10 00:26:28;;;;;;;0.90;0.17;;;;;;;23.48;43.51;100002.16;4390288;32;34520;-87
2021/07/10 00:28:56;;;;;;;0.52;0.30;;;;;;;23.39;44.30;99997.66;4405714;32;33429;-89
2021/07/10 00:31:24;;;;;;;0.22;0.10;;;;;;;23.72;43.41;99999.03;4405077;32;32351;-88
2021/07/10 00:33:53;;;;;;;0.37;0.20;;;;;;;23.69;43.68;99999.34;4404138;32;33137;-88
2021/07/10 00:36:20;;;;;;;5.78;0.30;;;;;;;23.76;43.28;99999.59;4400675;32;34052;-88
2021/07/10 00:38:49;;;;;;;0.10;0.10;;;;;;;23.44;44.06;99989.12;4394326;32;32753;-88
2021/07/10 00:41:17;;;;;;;0.30;0.22;;;;;;;23.57;43.76;99986.97;4414464;32;32445;-88
2021/07/10 00:43:50;;;;;;;0.20;0.10;;;;;;;23.14;44.83;99985.63;4404081;32;33322;-88
2021/07/10 00:46:19;;;;;;;0.28;0.20;;;;;;;23.34;44.43;99988.31;4393359;32;34057;-88
2021/07/10 00:48:48;;;;;;;0.10;0.10;;;;;;;23.12;45.27;99990.31;4398643;32;33792;-87
2021/07/10 00:51:16;;;;;;;0.30;0.20;;;;;;;23.30;44.61;99986.88;4403370;32;32566;-87
2021/07/10 00:53:46;;;;;;;1.05;0.20;;;;;;;23.26;44.62;99986.31;4390934;32;34180;-87
2021/07/10 00:56:15;;;;;;;0.05;0.05;;;;;;;23.22;45.01;99984.94;4404590;32;33544;-89
2021/07/10 00:58:43;;;;;;;0.75;0.28;;;;;;;23.29;44.67;99990.56;4406767;32;33922;-89
2021/07/10 01:01:11;;;;;;;0.30;0.20;;;;;;;23.27;44.84;99976.41;4392849;32;33491;-88
2021/07/10 01:03:44;;;;;;;1.48;0.20;;;;;;;23.30;44.48;99978.81;4401954;32;32893;-87
2021/07/10 01:06:14;;;;;;;0.37;0.20;;;;;;;23.03;45.06;99985.78;4410118;32;33559;-88
2021/07/10 01:08:42;;;;;;;0.20;0.20;;;;;;;22.96;45.29;99984.66;4405959;32;33965;-89
2021/07/10 01:11:10;;;;;;;0.25;0.25;;;;;;;22.64;46.08;99984.88;4401736;32;32528;-89
2021/07/10 01:13:38;;;;;;;0.32;0.32;;;;;;;22.60;46.52;99989.69;4399751;32;34971;-88
2021/07/10 01:16:05;;;;;;;0.73;0.20;;;;;;;22.51;46.56;99987.00;4403731;32;33011;-88
2021/07/10 01:18:45;;;;;;;3.40;0.37;;;;;;;22.26;47.51;99982.94;4399256;32;33108;-88
2021/07/10 01:25:17;;;;;;;1.33;0.30;;;;;;;22.53;46.65;99985.00;4414491;32;33482;-88
2021/07/10 01:27:45;;;;;;;1.20;0.13;;;;;;;22.59;47.06;99984.44;4398277;32;34299;-88
2021/07/10 01:30:16;;;;;;;0.25;0.10;;;;;;;22.42;47.25;99985.97;4401544;32;33133;-88
2021/07/10 01:32:45;;;;;;;2.10;0.30;;;;;;;22.39;47.34;99980.88;4408413;32;34570;-88
2021/07/10 01:35:14;;;;;;;0.15;0.15;;;;;;;22.37;47.39;99991.78;4403876;32;32922;-88
2021/07/10 01:37:44;;;;;;;0.28;0.28;;;;;;;22.46;47.20;99987.41;4396152;32;33115;-89
2021/07/10 01:40:14;;;;;;;0.20;0.20;;;;;;;22.46;47.19;99985.56;4404421;32;33250;-88
2021/07/10 01:42:43;;;;;;;0.68;0.30;;;;;;;22.17;47.84;99988.19;4398581;32;33072;-88
2021/07/10 01:45:12;;;;;;;0.40;0.30;;;;;;;22.35;47.69;99984.81;4405187;32;33253;-89
2021/07/10 01:47:40;;;;;;;2.35;0.13;;;;;;;22.62;46.55;99982.31;4405105;32;33880;-89
2021/07/10 01:50:10;;;;;;;0.98;0.25;;;;;;;22.38;47.29;99995.31;4405788;32;33970;-89
2021/07/10 01:52:39;;;;;;;0.30;0.20;;;;;;;22.33;47.32;99989.50;4405445;32;34843;-89
2021/07/10 01:55:09;;;;;;;2.37;0.30;;;;;;;22.09;47.76;99985.28;4403874;32;33425;-90
2021/07/10 01:57:42;;;;;;;0.40;0.22;;;;;;;22.30;46.99;99996.00;4405019;32;33495;-89
2021/07/10 02:00:15;;;;;;;0.55;0.22;;;;;;;22.33;46.98;99992.19;4407341;32;33870;-88
2021/07/10 02:02:43;;;;;;;0.15;0.15;;;;;;;22.23;47.22;99993.00;4405083;32;32735;-87
2021/07/10 02:05:12;;;;;;;0.10;0.10;;;;;;;22.32;46.67;99985.13;4407131;32;34024;-89
2021/07/10 02:07:40;;;;;;;1.85;0.22;;;;;;;21.96;47.22;99987.34;4406551;32;33622;-89
2021/07/10 02:10:11;;;;;;;2.30;0.20;;;;;;;22.29;45.98;99983.53;4397741;32;33963;-88
2021/07/10 02:12:40;;;;;;;0.20;0.20;;;;;;;22.26;46.06;99982.94;4389736;32;32379;-89
2021/07/10 02:15:08;;;;;;;0.47;0.30;;;;;;;22.36;45.93;99987.38;4401663;32;33868;-90
2021/07/10 02:17:36;;;;;;;0.95;0.20;;;;;;;21.76;47.50;99986.41;4404565;32;33466;-89
2021/07/10 02:20:06;;;;;;;1.98;0.20;;;;;;;21.92;47.33;99983.22;4394965;32;33516;-90
2021/07/10 02:22:33;;;;;;;0.25;0.10;;;;;;;21.95;46.65;99977.59;4403106;32;33629;-87
2021/07/10 02:25:03;;;;;;;0.20;0.10;;;;;;;22.10;46.23;99980.75;4386372;32;34107;-88
2021/07/10 02:27:30;;;;;;;0.35;0.35;;;;;;;21.92;46.99;99983.22;4407530;32;34580;-89
2021/07/10 02:29:58;;;;;;;0.10;0.10;;;;;;;21.91;46.86;99981.53;4405247;32;34474;-88
2021/07/10 02:32:26;;;;;;;1.52;0.30;;;;;;;21.86;47.53;99989.16;4406804;32;32614;-88
2021/07/10 02:34:54;;;;;;;0.30;0.20;;;;;;;22.04;47.04;99987.53;4405586;32;33774;-88
2021/07/10 02:37:21;;;;;;;1.60;0.20;;;;;;;21.97;47.00;99991.72;4389680;32;34014;-88
2021/07/10 02:39:49;;;;;;;0.17;0.17;;;;;;;21.81;48.15;99986.03;4403435;32;32997;-88
2021/07/10 02:42:16;;;;;;;0.30;0.10;;;;;;;21.67;48.15;99995.28;4407022;32;32457;-88
2021/07/10 02:44:44;;;;;;;0.10;0.10;;;;;;;21.85;47.36;100001.75;4401849;32;34294;-89
2021/07/10 02:47:11;;;;;;;0.20;0.20;;;;;;;21.96;47.01;99992.72;4393442;32;33650;-88
2021/07/10 02:49:39;;;;;;;0.37;0.20;;;;;;;21.73;47.90;100003.66;4407075;32;33100;-88
2021/07/10 02:52:08;;;;;;;0.15;0.15;;;;;;;21.64;48.13;100006.28;4406516;32;32459;-88
2021/07/10 02:54:36;;;;;;;0.52;0.20;;;;;;;21.92;47.58;99992.13;4396234;32;33187;-87
2021/07/10 02:57:04;;;;;;;2.75;0.20;;;;;;;22.06;47.15;99999.00;4410624;32;34528;-87
2021/07/10 02:59:32;;;;;;;1.15;0.45;;;;;;;21.83;47.97;99989.41;4405214;32;34418;-87
2021/07/10 03:01:59;;;;;;;1.35;0.20;;;;;;;21.66;48.67;99999.81;4406536;32;34088;-87
2021/07/10 03:04:27;;;;;;;2.72;0.30;;;;;;;22.07;47.41;99995.31;4403368;32;34506;-86
2021/07/10 03:06:55;;;;;;;1.55;0.20;;;;;;;21.88;48.00;99993.37;4405305;32;35501;-87
2021/07/10 03:09:23;;;;;;;0.73;0.15;;;;;;;21.84;48.09;99994.66;4392853;32;33471;-89
2021/07/10 03:11:51;;;;;;;0.80;0.20;;;;;;;21.70;48.43;99992.34;4404576;32;32665;-89
2021/07/10 03:14:18;;;;;;;0.30;0.20;;;;;;;21.39;49.54;100002.19;4401536;32;33272;-89
2021/07/10 03:16:46;;;;;;;0.57;0.22;;;;;;;21.63;48.84;99994.69;4390755;32;34054;-89
2021/07/10 03:19:14;;;;;;;1.52;0.20;;;;;;;21.82;48.25;99995.78;4408471;32;33560;-87
2021/07/10 03:21:42;;;;;;;0.20;0.10;;;;;;;21.52;48.95;99996.62;4403943;32;33262;-88
2021/07/10 03:24:10;;;;;;;0.20;0.10;;;;;;;21.78;48.20;100002.41;4401763;32;33014;-87
2021/07/10 03:26:38;;;;;;;1.55;0.25;;;;;;;21.76;48.50;99988.25;4398556;32;33046;-88
2021/07/10 03:29:06;;;;;;;3.12;0.30;;;;;;;21.92;47.76;99997.50;4401280;32;34307;-88
2021/07/10 03:31:34;;;;;;;0.90;0.30;;;;;;;21.60;48.84;100000.34;4392797;32;33986;-88
2021/07/10 03:34:02;;;;;;;2.75;0.20;;;;;;;21.52;48.94;100002.84;4403799;32;32988;-88
2021/07/10 03:36:30;;;;;;;0.30;0.25;;;;;;;21.47;49.52;100005.06;4401601;32;34300;-88
2021/07/10 03:38:58;;;;;;;1.58;0.20;;;;;;;21.39;49.70;100007.56;4406119;32;32399;-88
2021/07/10 03:41:26;;;;;;;0.50;0.20;;;;;;;21.49;49.30;100005.78;4397721;32;32764;-88
2021/07/10 03:43:53;;;;;;;1.62;0.20;;;;;;;21.61;49.05;100010.09;4404685;32;33840;-88
2021/07/10 03:46:21;;;;;;;0.28;0.28;;;;;;;21.75;48.81;100014.28;4406320;32;33485;-89
2021/07/10 03:48:49;;;;;;;0.20;0.20;;;;;;;21.58;49.41;100021.09;4402753;32;33099;-89
2021/07/10 03:51:17;;;;;;;0.85;0.25;;;;;;;21.81;48.86;100018.28;4403062;32;33524;-89
2021/07/10 03:53:45;;;;;;;0.32;0.17;;;;;;;21.60;49.72;100016.47;4412846;32;32746;-89
2021/07/10 03:56:14;;;;;;;0.70;0.20;;;;;;;21.81;48.87;100024.50;4405773;32;34518;-88
2021/07/10 03:58:43;;;;;;;0.28;0.22;;;;;;;21.51;50.16;100017.25;4404767;32;33385;-89
2021/07/10 04:01:10;;;;;;;1.65;0.30;;;;;;;21.69;49.41;100021.03;4406097;32;32481;-89
2021/07/10 04:03:38;;;;;;;0.85;0.20;;;;;;;21.75;49.49;100018.81;4402113;32;32780;-88
2021/07/10 04:06:06;;;;;;;0.30;0.20;;;;;;;21.73;49.81;100027.84;4405874;32;35129;-88
2021/07/10 04:08:34;;;;;;;1.08;0.10;;;;;;;21.94;49.11;100022.44;4405344;32;34297;-88
2021/07/10 04:11:02;;;;;;;0.52;0.30;;;;;;;22.17;48.55;100015.09;4406895;32;32418;-88
2021/07/10 04:13:30;;;;;;;0.35;0.15;;;;;;;21.95;49.10;100015.22;4400737;32;34657;-88
2021/07/10 04:15:57;;;;;;;0.17;0.15;;;;;;;22.23;49.02;100014.53;4406908;32;34398;-88
2021/07/10 04:18:25;;;;;;;0.35;0.13;;;;;;;22.55;47.41;100018.88;4405272;32;33816;-88
2021/07/10 04:20:53;;;;;;;3.45;0.20;;;;;;;22.56;47.50;100025.94;4404535;32;32621;-88
2021/07/10 04:23:23;;;;;;;0.50;0.20;;;;;;;22.37;47.99;100015.12;4406844;32;33109;-89
2021/07/10 04:25:52;;;;;;;0.52;0.20;;;;;;;22.49;47.82;100019.41;4396060;32;33630;-88
2021/07/10 04:28:24;;;;;;;0.37;0.20;;;;;;;22.38;47.76;100023.06;4407643;32;32925;-88
2021/07/10 04:30:52;;;;;;;1.52;0.30;;;;;;;22.38;48.07;100023.06;4392703;32;33706;-88
2021/07/10 04:33:20;;;;;;;1.92;0.20;;;;;;;22.52;47.19;100020.97;4384487;32;33096;-89
2021/07/10 04:35:47;;;;;;;2.15;0.22;;;;;;;22.63;47.10;100029.78;4400673;32;33371;-90
2021/07/10 04:38:15;;;;;;;0.13;0.10;;;;;;;22.93;46.73;100023.50;4395431;32;32764;-89
2021/07/10 04:40:43;;;;;;;2.28;0.20;;;;;;;22.94;46.49;100019.81;4399833;32;32478;-89
2021/07/10 04:43:12;;;;;;;0.10;0.10;;;;;;;22.82;46.55;100028.09;4398727;32;34439;-89
2021/07/10 04:45:40;;;;;;;0.28;0.20;;;;;;;23.04;46.51;100019.81;4405758;32;33296;-89
2021/07/10 04:48:08;;;;;;;0.65;0.20;;;;;;;23.14;45.85;100020.66;4384588;32;33048;-89
2021/07/10 04:50:36;;;;;;;0.10;0.10;;;;;;;23.22;45.49;100018.09;4400852;32;33592;-88
2021/07/10 04:53:04;;;;;;;0.20;0.10;;;;;;;23.59;45.30;100024.56;4395890;32;31875;-89
2021/07/10 04:55:32;;;;;;;1.85;0.20;;;;;;;23.39;45.86;100021.91;4397814;32;33679;-88
2021/07/10 04:58:00;;;;;;;0.70;0.10;;;;;;;23.36;45.46;100024.91;4400666;32;32832;-88
2021/07/10 05:00:29;;;;;;;0.10;0.10;;;;;;;23.21;45.85;100021.75;4401872;32;34010;-87
2021/07/10 05:02:56;;;;;;;0.30;0.20;;;;;;;23.40;44.51;100031.69;4398198;32;33131;-89
2021/07/10 05:05:24;;;;;;;0.47;0.40;;;;;;;23.52;44.97;100032.38;4391225;32;34437;-87
2021/07/10 05:07:52;;;;;;;1.00;0.20;;;;;;;23.39;46.70;100045.31;4397898;32;33922;-87
2021/07/10 05:10:21;;;;;;;0.20;0.17;;;;;;;23.58;45.02;100045.28;4397048;32;34246;-88
2021/07/10 05:12:48;;;;;;;0.30;0.20;;;;;;;23.62;44.49;100044.00;4401423;32;33903;-88
2021/07/10 05:15:17;;;;;;;0.73;0.20;;;;;;;23.79;44.24;100058.63;4401054;32;33378;-88
2021/07/10 05:17:45;;;;;;;0.28;0.20;;;;;;;23.82;44.44;100060.16;4386436;32;33428;-87
2021/07/10 05:20:13;;;;;;;0.20;0.20;;;;;;;24.04;43.42;100057.13;4403617;32;33805;-88
2021/07/10 05:22:41;;;;;;;1.08;0.20;;;;;;;24.02;43.93;100059.97;4385468;32;34030;-89
2021/07/10 05:25:10;;;;;;;1.12;0.30;;;;;;;23.92;44.26;100064.53;4404584;32;33478;-89
2021/07/10 05:27:38;;;;;;;0.10;0.10;;;;;;;24.02;43.72;100064.50;4395418;32;32467;-88
2021/07/10 05:30:08;;;;;;;2.92;0.20;;;;;;;23.70;43.95;100071.13;4393285;32;33717;-89
2021/07/10 05:32:36;;;;;;;1.20;0.20;;;;;;;23.82;43.79;100062.84;4400243;32;33850;-88
2021/07/10 05:35:06;;;;;;;4.40;0.30;;;;;;;24.03;43.27;100071.63;4399694;32;33807;-87
2021/07/10 05:37:33;;;;;;;2.12;0.37;;;;;;;23.93;43.92;100071.66;4407427;32;35127;-88
2021/07/10 05:40:02;;;;;;;2.03;0.10;;;;;;;23.94;44.87;100075.19;4407557;32;33436;-88
2021/07/10 05:42:29;;;;;;;1.85;0.13;;;;;;;24.10;44.62;100078.09;4401555;32;33199;-87
2021/07/10 05:44:57;;;;;;;0.32;0.10;;;;;;;24.17;44.02;100073.84;4391494;32;33576;-87
2021/07/10 05:47:25;;;;;;;0.20;0.20;;;;;;;24.68;42.98;100077.87;4385696;32;34335;-88
2021/07/10 05:49:52;;;;;;;0.88;0.20;;;;;;;24.77;43.21;100076.97;4404384;32;32762;-88
2021/07/10 05:52:20;;;;;;;0.65;0.10;;;;;;;24.74;42.84;100079.16;4402687;32;33432;-88
2021/07/10 05:54:48;;;;;;;0.10;0.10;;;;;;;25.09;42.41;100078.34;4402907;32;33443;-88
2021/07/10 05:57:15;;;;;;;0.88;0.20;;;;;;;24.88;43.32;100088.59;4391862;32;32992;-87
2021/07/10 05:59:43;;;;;;;0.47;0.20;;;;;;;25.02;42.66;100090.75;4386969;32;33714;-87
2021/07/10 06:02:10;;;;;;;0.10;0.10;;;;;;;25.07;42.97;100102.00;4399023;32;34390;-87
2021/07/10 06:04:38;;;;;;;0.60;0.13;;;;;;;25.33;41.59;100091.25;4410163;32;35079;-86
2021/07/10 06:07:07;;;;;;;0.80;0.30;;;;;;;25.35;41.70;100104.59;4396095;32;33949;-88
2021/07/10 06:09:35;;;;;;;0.68;0.20;;;;;;;25.21;42.19;100101.47;4404184;32;32773;-88
2021/07/10 06:12:04;;;;;;;1.10;0.20;;;;;;;25.61;41.40;100104.69;4381776;32;34651;-88
2021/07/10 06:14:32;;;;;;;3.12;0.50;;;;;;;25.66;41.18;100110.47;4401636;32;34855;-87
2021/07/10 06:17:00;;;;;;;1.67;0.20;;;;;;;25.65;41.28;100100.66;4416625;32;32629;-84
2021/07/10 06:19:29;;;;;;;0.52;0.20;;;;;;;25.53;41.32;100105.44;4390155;32;33360;-84
2021/07/10 06:21:56;;;;;;;0.37;0.20;;;;;;;25.79;40.35;100102.84;4391399;32;34604;-85
2021/07/10 06:24:24;;;;;;;0.28;0.10;;;;;;;25.68;40.53;100103.88;4394178;32;33799;-85
2021/07/10 06:26:54;;;;;;;2.28;0.20;;;;;;;25.82;40.18;100101.66;4391452;32;34477;-83
2021/07/10 06:29:21;;;;;;;0.40;0.15;;;;;;;25.19;42.09;100103.44;4401529;32;33248;-83
2021/07/10 06:31:49;;;;;;;0.37;0.30;;;;;;;25.65;40.06;100095.25;4394508;32;33792;-83
2021/07/10 06:34:17;;;;;;;1.85;0.20;;;;;;;25.65;40.19;100098.81;4394138;32;34624;-83
2021/07/10 06:36:45;;;;;;;0.20;0.10;;;;;;;25.93;40.87;100106.81;4378176;32;34545;-83
2021/07/10 06:39:12;;;;;;;0.88;0.10;;;;;;;25.99;40.98;100117.00;4389449;32;33703;-83
2021/07/10 06:41:40;;;;;;;0.45;0.22;;;;;;;26.10;39.63;100122.16;4391897;32;33233;-82
2021/07/10 06:44:08;;;;;;;0.47;0.37;;;;;;;25.65;40.56;100125.84;4400238;32;33997;-82
2021/07/10 06:46:35;;;;;;;1.20;0.17;;;;;;;25.77;40.23;100126.47;4402737;32;32979;-83
2021/07/10 06:49:04;;;;;;;1.40;0.10;;;;;;;26.02;40.49;100132.94;4405312;32;33553;-83
2021/07/10 06:51:31;;;;;;;1.67;0.13;;;;;;;25.91;41.50;100128.59;4393479;32;33237;-83
2021/07/10 06:53:59;;;;;;;1.98;0.20;;;;;;;25.98;40.55;100131.56;4398696;32;33689;-83
2021/07/10 06:56:27;;;;;;;0.90;0.20;;;;;;;26.46;40.16;100124.78;4401395;32;35196;-83
2021/07/10 06:58:54;;;;;;;0.30;0.20;;;;;;;26.29;40.17;100132.75;4391829;32;32473;-83
2021/07/10 07:01:22;;;;;;;0.82;0.20;;;;;;;26.42;39.24;100139.59;4396080;32;33367;-83
2021/07/10 07:03:51;;;;;;;0.88;0.57;;;;;;;26.39;39.11;100137.19;4383924;32;33185;-83
2021/07/10 07:06:18;;;;;;;4.28;0.10;;;;;;;25.89;41.03;100137.91;4397042;32;34832;-83
2021/07/10 07:08:46;;;;;;;4.62;0.40;;;;;;;26.11;39.96;100131.97;4376915;32;33718;-83
2021/07/10 07:11:14;;;;;;;0.25;0.20;;;;;;;26.08;40.18;100132.28;4396172;32;32044;-83
2021/07/10 07:13:41;;;;;;;1.77;0.37;;;;;;;26.16;39.56;100128.78;4397343;32;35923;-83
2021/07/10 07:16:09;;;;;;;0.30;0.13;;;;;;;25.76;40.94;100127.47;4388377;32;34352;-83
2021/07/10 07:18:37;;;;;;;0.30;0.17;;;;;;;25.90;40.28;100118.78;4402083;32;32262;-83
2021/07/10 07:21:05;;;;;;;0.47;0.20;;;;;;;26.28;39.59;100106.69;4400285;32;33258;-83
2021/07/10 07:23:34;;;;;;;1.02;0.28;;;;;;;26.17;39.52;100104.28;4358495;32;33435;-84
2021/07/10 07:26:02;;;;;;;2.22;0.30;;;;;;;26.58;39.97;100107.22;4390711;32;34209;-83
2021/07/10 07:28:30;;;;;;;1.73;0.22;;;;;;;26.77;39.47;100103.38;4389120;32;33412;-83
2021/07/10 07:30:58;;;;;;;0.30;0.13;;;;;;;26.57;39.74;100102.81;4393050;32;33102;-83
2021/07/10 07:33:27;;;;;;;2.25;0.30;;;;;;;26.95;38.87;100097.84;4397894;32;34012;-83
2021/07/10 07:35:59;;;;;;;0.20;0.20;;;;;;;27.11;38.73;100097.94;4403604;32;34160;-84
2021/07/10 07:38:27;;;;;;;3.40;0.55;;;;;;;27.54;37.76;100087.81;4403588;32;32573;-84
2021/07/10 07:40:55;;;;;;;2.83;0.25;;;;;;;27.76;37.17;100092.56;4397370;32;33579;-83
2021/07/10 07:43:23;;;;;;;1.15;0.30;;;;;;;27.42;37.90;100089.16;4399645;32;33634;-83
2021/07/10 07:45:51;;;;;;;1.30;0.20;;;;;;;27.61;37.04;100083.41;4395942;32;34059;-83
2021/07/10 07:48:19;;;;;;;2.03;0.20;;;;;;;27.93;36.80;100087.97;4394092;32;33352;-83
2021/07/10 07:50:49;;;;;;;0.25;0.20;;;;;;;27.69;36.76;100091.53;4400664;32;33870;-83
2021/07/10 07:53:19;;;;;;;1.20;0.20;;;;;;;28.15;36.01;100080.13;4392239;32;33590;-83
2021/07/10 07:55:47;;;;;;;0.43;0.20;;;;;;;28.02;37.58;100088.81;4401900;32;33321;-84
2021/07/10 07:58:14;;;;;;;0.95;0.35;;;;;;;28.22;37.48;100087.41;4397479;32;33325;-84
2021/07/10 08:00:42;;;;;;;3.10;0.20;;;;;;;28.30;35.35;100084.69;4406687;32;33267;-83
2021/07/10 08:03:10;;;;;;;0.20;0.10;;;;;;;28.56;35.62;100089.00;4405119;32;35619;-84
2021/07/10 08:05:38;;;;;;;3.08;0.20;;;;;;;28.56;34.93;100098.00;4400731;32;33489;-83
2021/07/10 08:08:06;;;;;;;2.97;0.20;;;;;;;28.48;35.48;100097.19;4393985;32;34555;-83
2021/07/10 08:10:34;;;;;;;0.30;0.30;;;;;;;28.39;34.75;100095.53;4391155;32;31492;-83
2021/07/10 08:13:02;;;;;;;0.20;0.20;;;;;;;28.54;35.08;100094.63;4382977;32;30941;-83
2021/07/10 08:15:30;;;;;;;0.32;0.20;;;;;;;28.45;35.74;100094.84;4397501;32;34037;-84
2021/07/10 08:17:58;;;;;;;0.10;0.10;;;;;;;28.60;35.24;100093.06;4402666;32;34158;-84
2021/07/10 08:20:25;;;;;;;0.28;0.20;;;;;;;28.57;34.80;100096.97;4394405;32;33967;-84
2021/07/10 08:22:53;;;;;;;0.52;0.25;;;;;;;28.71;34.01;100092.69;4396068;32;32048;-84
2021/07/10 08:25:40;;;;;;;0.40;0.30;;;;;;;28.84;34.75;100087.53;4403266;32;34623;-83
2021/07/10 08:28:08;;;;;;;1.00;0.32;;;;;;;28.84;34.72;100087.53;4406436;32;32795;-84
2021/07/10 08:30:36;;;;;;;0.25;0.20;;;;;;;29.27;34.53;100089.84;4394401;32;33154;-84
2021/07/10 08:33:04;;;;;;;0.30;0.10;;;;;;;29.22;33.56;100086.81;4388536;32;34311;-84
2021/07/10 08:35:31;;;;;;;1.35;0.37;;;;;;;29.50;33.62;100087.13;4401667;32;33597;-83
2021/07/10 08:37:59;;;;;;;3.60;0.28;;;;;;;29.77;31.91;100086.56;4379929;32;34397;-84
2021/07/10 08:40:27;;;;;;;4.72;0.37;;;;;;;29.96;32.13;100082.47;4404021;32;33498;-83
2021/07/10 08:42:54;;;;;;;1.00;0.10;;;;;;;29.55;32.82;100079.28;4397981;32;33011;-84
2021/07/10 08:45:22;;;;;;;1.90;0.17;;;;;;;29.75;32.88;100074.16;4394869;32;32641;-84
2021/07/10 08:47:50;;;;;;;0.10;0.10;;;;;;;29.75;32.21;100079.59;4403767;32;33548;-84
2021/07/10 08:50:19;;;;;;;0.20;0.17;;;;;;;29.70;32.82;100080.16;4391784;32;34427;-84
2021/07/10 08:52:51;;;;;;;1.10;0.20;;;;;;;29.88;32.78;100078.97;4393571;32;34154;-84
2021/07/10 08:55:19;;;;;;;1.50;0.10;;;;;;;30.18;31.76;100078.00;4394667;32;33708;-84
2021/07/10 08:57:47;;;;;;;1.75;0.20;;;;;;;30.09;32.57;100073.66;4395811;32;33322;-84
2021/07/10 09:00:18;;;;;;;0.25;0.20;;;;;;;30.01;31.72;100068.31;4402386;32;33692;-84
2021/07/10 09:02:48;;;;;;;0.22;0.20;;;;;;;30.20;32.79;100067.78;4389101;32;33304;-83
2021/07/10 09:05:17;;;;;;;1.03;0.20;;;;;;;30.40;31.78;100064.50;4403102;32;33505;-84
2021/07/10 09:08:13;;;;;;;2.60;0.20;;;;;;;30.17;31.70;100068.16;4405586;32;32689;-84
2021/07/10 09:10:41;;;;;;;0.20;0.20;;;;;;;30.23;31.89;100061.94;4404175;32;34031;-83
2021/07/10 09:13:09;;;;;;;0.40;0.20;;;;;;;30.20;31.40;100065.06;4400411;32;33265;-84
2021/07/10 09:15:38;;;;;;;0.85;0.17;;;;;;;30.39;31.54;100060.91;4394419;32;34058;-84
2021/07/10 09:18:10;;;;;;;1.12;0.28;;;;;;;30.27;30.36;100068.72;4389422;32;33862;-84
2021/07/10 09:20:39;;;;;;;0.40;0.37;;;;;;;30.42;30.70;100059.69;4400450;32;32809;-83
2021/07/10 09:23:44;;;;;;;0.20;0.20;;;;;;;30.91;30.18;100059.03;4402914;32;33224;-83
2021/07/10 09:26:12;;;;;;;0.25;0.20;;;;;;;30.52;30.74;100066.53;4391082;32;33413;-84
2021/07/10 09:28:40;;;;;;;1.37;0.20;;;;;;;30.84;30.25;100058.97;4378652;32;33046;-84
2021/07/10 09:31:14;;;;;;;0.20;0.20;;;;;;;30.88;29.59;100054.00;4397239;32;33554;-83
2021/07/10 09:33:42;;;;;;;0.32;0.20;;;;;;;31.15;29.22;100047.78;4393439;32;33987;-84
2021/07/10 09:36:10;;;;;;;0.75;0.10;;;;;;;30.96;29.91;100048.44;4387160;32;30834;-84
2021/07/10 09:38:37;;;;;;;0.30;0.30;;;;;;;31.23;30.48;100044.91;4390494;32;34108;-83
2021/07/10 09:41:08;;;;;;;0.10;0.10;;;;;;;30.99;30.29;100040.69;4402553;32;33191;-84
2021/07/10 09:43:37;;;;;;;0.75;0.10;;;;;;;31.15;29.52;100036.87;4397856;32;89201;-84
2021/07/10 09:46:08;;;;;;;2.58;0.20;;;;;;;30.97;29.94;100048.22;4392039;32;33665;-84
2021/07/10 09:48:38;;;;;;;1.33;0.30;;;;;;;31.12;30.78;100037.25;4377026;32;32571;-83
2021/07/10 09:51:21;;;;;;;0.17;0.17;;;;;;;31.07;30.11;100042.47;4401734;32;32894;-83
2021/07/10 09:54:01;;;;;;;0.75;0.20;;;;;;;31.15;29.92;100050.53;4398069;32;33883;-84
2021/07/10 09:56:30;;;;;;;0.17;0.17;;;;;;;31.18;29.38;100043.81;4402593;32;32801;-84
2021/07/10 09:58:58;;;;;;;2.55;0.90;;;;;;;31.31;30.46;100039.38;4400129;32;32983;-84
2021/07/10 10:01:36;;;;;;;0.57;0.30;;;;;;;31.65;28.92;100029.56;4394490;32;33696;-84
2021/07/10 10:04:21;;;;;;;0.10;0.10;;;;;;;31.42;28.17;100037.13;4401226;32;33138;-84
2021/07/10 10:06:49;;;;;;;2.10;0.52;;;;;;;31.40;28.68;100028.31;4395403;32;33530;-84
2021/07/10 10:09:28;;;;;;;0.13;0.10;;;;;;;31.26;28.69;100019.97;4410117;32;35200;-83
2021/07/10 10:12:03;;;;;;;0.98;0.20;;;;;;;31.54;28.79;100021.94;4403189;32;33091;-83
2021/07/10 10:14:35;;;;;;;0.90;0.62;;;;;;;31.55;29.42;100026.34;4402164;32;35304;-83
2021/07/10 10:17:03;;;;;;;0.20;0.20;;;;;;;31.64;28.81;100022.44;4401942;32;33628;-84
2021/07/10 10:19:33;;;;;;;0.65;0.45;;;;;;;31.57;28.50;100016.94;4395095;32;34259;-83
2021/07/10 10:22:05;;;;;;;0.10;0.10;;;;;;;31.87;27.53;100017.59;4405425;32;34251;-83
2021/07/10 10:24:33;;;;;;;1.95;0.20;;;;;;;31.91;28.12;100012.56;4404307;32;34830;-83
2021/07/10 10:27:02;;;;;;;0.20;0.20;;;;;;;31.82;28.40;100017.34;4408773;32;32627;-84
2021/07/10 10:29:30;;;;;;;0.37;0.37;;;;;;;32.03;28.03;100021.88;4389560;32;32800;-84
2021/07/10 10:31:58;;;;;;;0.73;0.30;;;;;;;31.94;27.03;100005.84;4391145;32;32045;-84
2021/07/10 10:34:27;;;;;;;1.40;0.20;;;;;;;31.89;27.11;100011.06;4392307;32;34115;-84
2021/07/10 10:36:56;;;;;;;0.40;0.20;;;;;;;31.99;26.90;100008.81;4403698;32;34781;-84
2021/07/10 10:39:28;;;;;;;0.20;0.20;;;;;;;31.93;27.37;100015.09;4388856;32;34178;-84
2021/07/10 10:42:03;;;;;;;0.25;0.13;;;;;;;32.13;27.46;100010.59;4406931;32;34229;-84
2021/07/10 10:44:42;;;;;;;1.65;0.20;;;;;;;32.10;26.53;100000.91;4401709;32;33804;-84
2021/07/10 10:47:11;;;;;;;0.10;0.10;;;;;;;32.30;26.46;100000.16;4398885;32;33702;-84
2021/07/10 10:49:46;;;;;;;0.10;0.10;;;;;;;32.46;25.36;99994.37;4400093;32;33039;-84
2021/07/10 10:52:25;;;;;;;0.10;0.10;;;;;;;32.43;26.12;99991.19;4388528;32;31260;-84
2021/07/10 10:55:11;;;;;;;0.70;0.22;;;;;;;32.47;25.75;99992.47;4376814;32;33500;-84
2021/07/10 10:57:46;;;;;;;0.20;0.20;;;;;;;32.97;25.82;99995.81;4388065;32;34534;-84
2021/07/10 11:00:23;;;;;;;1.85;0.10;;;;;;;33.41;25.53;99973.31;4389552;32;33400;-84
2021/07/10 11:03:00;;;;;;;0.40;0.20;;;;;;;33.09;23.81;99977.72;4389257;32;33738;-85
2021/07/10 11:05:30;;;;;;;1.75;0.55;;;;;;;33.29;23.58;99969.53;4383938;32;34460;-85
2021/07/10 11:08:21;;;;;;;0.70;0.70;;;;;;;33.39;23.50;99967.22;4403827;32;33040;-84
2021/07/10 11:10:58;;;;;;;0.85;0.10;;;;;;;33.54;22.91;99967.84;4382236;32;33450;-85
2021/07/10 11:13:46;;;;;;;0.20;0.20;;;;;;;33.74;22.79;99964.25;4402619;32;34285;-84
2021/07/10 11:16:16;;;;;;;1.23;0.15;;;;;;;33.25;23.25;99963.63;4398088;32;34003;-84
2021/07/10 11:19:00;;;;;;;0.22;0.10;;;;;;;33.35;23.68;99953.09;4403641;32;34470;-85
2021/07/10 11:21:48;;;;;;;0.10;0.10;;;;;;;33.34;22.91;99951.41;4404259;32;32751;-83
2021/07/10 11:24:19;;;;;;;2.50;0.20;;;;;;;33.70;22.53;99952.03;4393450;32;34639;-83
2021/07/10 11:26:57;;;;;;;0.10;0.10;;;;;;;33.21;23.96;99958.78;4394099;32;35146;-84
2021/07/10 11:29:24;;;;;;;0.40;0.00;;;;;;;32.91;23.37;99950.16;4400890;32;33320;-83
2021/07/10 11:31:53;;;;;;;0.25;0.00;;;;;;;33.33;24.15;99946.16;4391468;32;33648;-84
2021/07/10 11:34:33;;;;;;;0.00;0.00;;;;;;;33.54;22.29;99945.13;4381503;32;33626;-83
2021/07/10 11:37:24;;;;;;;0.05;0.00;;;;;;;33.73;22.87;99946.13;4403664;32;33490;-84
2021/07/10 11:39:55;;;;;;;0.20;0.13;;;;;;;33.60;22.74;99939.63;4394149;32;34669;-83
2021/07/10 11:42:27;;;;;;;0.47;0.20;;;;;;;33.52;23.44;99944.47;4383724;32;33756;-84